createdAt,value
2018-01-19T00:00:47.055Z,5.83
2018-01-19T00:03:15.382Z,8.10
2018-01-19T00:05:42.936Z,7.87
2018-01-19T00:08:10.492Z,5.67
2018-01-19T00:10:38.020Z,8.00
2018-01-19T00:13:05.581Z,8.50
2018-01-19T00:15:33.888Z,11.20
2018-01-19T00:18:02.222Z,6.50
2018-01-19T00:20:29.755Z,6.30
2018-01-19T00:22:57.317Z,6.87
2018-01-19T00:25:24.867Z,8.67
2018-01-19T00:27:52.449Z,8.60
2018-01-19T00:30:20.022Z,14.20
2018-01-19T00:32:47.563Z,11.43
2018-01-19T00:35:15.111Z,8.97
2018-01-19T00:37:42.639Z,14.33
2018-01-19T00:40:10.191Z,10.37
2018-01-19T00:42:37.730Z,9.27
2018-01-19T00:45:06.054Z,11.77
2018-01-19T00:47:33.613Z,12.00
2018-01-19T00:50:01.950Z,12.97
2018-01-19T00:52:29.509Z,13.67
2018-01-19T00:54:57.089Z,13.33
2018-01-19T00:57:24.641Z,15.30
2018-01-19T00:59:52.209Z,13.30
2018-01-19T01:02:19.747Z,14.87
2018-01-19T01:04:47.285Z,22.20
2018-01-19T01:07:14.849Z,18.37
2018-01-19T01:09:42.383Z,21.70
2018-01-19T01:12:10.714Z,15.30
2018-01-19T01:14:38.264Z,21.80
2018-01-19T01:17:06.596Z,21.50
2018-01-19T01:19:34.145Z,26.40
2018-01-19T01:22:02.484Z,21.10
2018-01-19T01:24:30.037Z,21.40
2018-01-19T01:26:58.359Z,24.20
2018-01-19T01:29:25.901Z,24.33
2018-01-19T01:31:53.481Z,17.60
2018-01-19T01:34:21.034Z,20.73
2018-01-19T01:36:48.600Z,22.83
2018-01-19T01:39:16.144Z,26.90
2018-01-19T01:41:43.716Z,20.60
2018-01-19T01:44:11.261Z,23.50
2018-01-19T01:46:38.834Z,21.90
2018-01-19T01:49:12.174Z,20.17
2018-01-19T01:51:39.755Z,21.67
2018-01-19T01:54:08.060Z,21.93
2018-01-19T01:56:35.600Z,22.93
2018-01-19T01:59:03.928Z,21.30
2018-01-19T02:01:31.482Z,20.90
2018-01-19T02:03:59.818Z,19.50
2018-01-19T02:06:27.380Z,25.37
2018-01-19T02:08:55.733Z,24.50
2018-01-19T02:11:23.276Z,21.40
2018-01-19T02:13:50.836Z,20.70
2018-01-19T02:16:19.154Z,28.77
2018-01-19T02:18:46.730Z,24.70
2018-01-19T02:21:14.293Z,19.23
2018-01-19T02:23:41.861Z,24.90
2018-01-19T02:26:09.401Z,24.17
2018-01-19T02:28:36.973Z,22.30
2018-01-19T02:31:05.297Z,21.17
2018-01-19T02:33:32.869Z,21.13
2018-01-19T02:36:00.422Z,25.73
2018-01-19T02:38:27.986Z,18.73
2018-01-19T02:40:55.526Z,20.33
2018-01-19T02:43:23.084Z,20.00
2018-01-19T02:45:51.397Z,24.53
2018-01-19T02:48:19.707Z,21.70
2018-01-19T02:50:47.268Z,15.70
2018-01-19T02:53:15.588Z,23.73
2018-01-19T02:55:43.164Z,18.40
2018-01-19T02:58:11.469Z,19.00
2018-01-19T03:00:39.798Z,15.20
2018-01-19T03:03:07.340Z,18.70
2018-01-19T03:05:35.683Z,24.77
2018-01-19T03:08:03.227Z,26.33
2018-01-19T03:10:30.821Z,27.10
2018-01-19T03:12:58.368Z,29.10
2018-01-19T03:15:25.937Z,21.30
2018-01-19T03:17:53.476Z,18.70
2018-01-19T03:20:21.805Z,22.07
2018-01-19T03:22:49.352Z,20.43
2018-01-19T03:25:17.660Z,24.83
2018-01-19T03:27:46.032Z,25.20
2018-01-19T03:30:13.576Z,24.07
2018-01-19T03:32:41.132Z,21.50
2018-01-19T03:35:09.448Z,45.03
2018-01-19T03:37:37.012Z,24.07
2018-01-19T03:40:05.324Z,19.20
2018-01-19T03:42:32.911Z,21.13
2018-01-19T03:45:01.212Z,18.53
2018-01-19T03:47:29.730Z,18.63
2018-01-19T03:49:57.311Z,18.07
2018-01-19T03:52:24.885Z,13.20
2018-01-19T03:54:53.520Z,14.93
2018-01-19T03:57:21.129Z,15.10
2018-01-19T03:59:48.668Z,18.23
2018-01-19T04:02:16.993Z,17.87
2018-01-19T04:04:44.536Z,11.67
2018-01-19T04:07:12.873Z,18.83
2018-01-19T04:09:40.459Z,11.67
2018-01-19T04:12:07.996Z,17.37
2018-01-19T04:14:35.552Z,19.47
2018-01-19T04:17:03.122Z,17.17
2018-01-19T04:19:30.687Z,15.30
2018-01-19T04:21:58.231Z,15.40
2018-01-19T04:24:25.796Z,17.87
2018-01-19T04:26:53.344Z,14.73
2018-01-19T04:29:20.903Z,17.60
2018-01-19T04:31:49.204Z,20.57
2018-01-19T04:34:17.528Z,18.13
2018-01-19T04:36:45.081Z,18.13
2018-01-19T04:39:13.412Z,18.80
2018-01-19T04:41:40.952Z,19.13
2018-01-19T04:44:08.512Z,14.17
2018-01-19T04:46:36.080Z,13.27
2018-01-19T04:49:03.637Z,12.80
2018-01-19T04:51:31.945Z,18.17
2018-01-19T04:53:59.512Z,19.07
2018-01-19T04:56:27.828Z,15.83
2018-01-19T04:58:55.376Z,19.70
2018-01-19T05:01:22.941Z,15.83
2018-01-19T05:03:50.486Z,20.70
2018-01-19T05:06:18.065Z,17.60
2018-01-19T05:08:45.612Z,13.63
2018-01-19T05:11:13.179Z,16.87
2018-01-19T05:13:40.739Z,20.63
2018-01-19T05:16:08.304Z,16.50
2018-01-19T05:18:35.857Z,20.60
2018-01-19T05:21:03.424Z,20.60
2018-01-19T05:23:30.995Z,20.97
2018-01-19T05:25:58.589Z,26.27
2018-01-19T05:28:26.141Z,22.77
2018-01-19T05:30:54.479Z,23.63
2018-01-19T05:33:22.025Z,20.57
2018-01-19T05:35:49.589Z,24.10
2018-01-19T05:38:17.135Z,21.60
2018-01-19T05:40:44.680Z,18.00
2018-01-19T05:43:12.235Z,19.20
2018-01-19T05:45:40.538Z,21.33
2018-01-19T05:48:08.869Z,15.47
2018-01-19T05:50:36.409Z,15.70
2018-01-19T05:53:04.744Z,26.60
2018-01-19T05:55:32.288Z,22.20
2018-01-19T05:58:00.657Z,24.90
2018-01-19T06:00:28.199Z,20.17
2018-01-19T06:02:55.773Z,17.33
2018-01-19T06:05:23.332Z,20.83
2018-01-19T06:07:50.977Z,22.43
2018-01-19T06:10:18.514Z,21.70
2018-01-19T06:12:46.072Z,26.50
2018-01-19T06:15:13.704Z,27.73
2018-01-19T06:17:41.277Z,32.80
2018-01-19T06:20:09.590Z,33.27
2018-01-19T06:22:37.918Z,23.97
2018-01-19T06:25:05.460Z,34.43
2018-01-19T06:27:33.808Z,33.87
2018-01-19T06:30:01.382Z,25.87
2018-01-19T06:32:28.942Z,32.70
2018-01-19T06:34:57.268Z,31.00
2018-01-19T06:37:24.809Z,31.17
2018-01-19T06:39:53.144Z,27.80
2018-01-19T06:42:20.690Z,34.77
2018-01-19T06:44:48.250Z,27.27
2018-01-19T06:47:15.796Z,39.47
2018-01-19T06:49:43.368Z,40.67
2018-01-19T06:52:10.937Z,37.80
2018-01-19T06:54:38.500Z,35.07
2018-01-19T06:57:06.049Z,39.60
2018-01-19T06:59:33.620Z,35.93
2018-01-19T07:02:01.186Z,35.13
2018-01-19T07:04:28.759Z,40.47
2018-01-19T07:06:57.076Z,34.43
2018-01-19T07:09:24.625Z,40.90
2018-01-19T07:11:52.196Z,50.63
2018-01-19T07:14:19.753Z,41.30
2018-01-19T07:16:47.320Z,43.70
2018-01-19T07:19:14.865Z,35.87
2018-01-19T07:21:42.432Z,43.73
2018-01-19T07:24:09.981Z,54.27
2018-01-19T07:26:37.549Z,36.53
2018-01-19T07:29:05.092Z,41.10
2018-01-19T07:31:32.652Z,51.40
2018-01-19T07:34:00.201Z,43.33
2018-01-19T07:36:27.766Z,53.17
2018-01-19T07:38:56.097Z,34.67
2018-01-19T07:41:23.659Z,40.70
2018-01-19T07:43:51.972Z,33.43
2018-01-19T07:46:19.540Z,43.97
2018-01-19T07:48:47.861Z,43.70
2018-01-19T07:51:15.424Z,41.30
2018-01-19T07:53:43.737Z,39.73
2018-01-19T07:56:12.064Z,39.97
2018-01-19T07:58:39.626Z,30.07
2018-01-19T08:01:07.178Z,36.73
2018-01-19T08:03:34.751Z,37.33
2018-01-19T08:06:02.300Z,35.03
2018-01-19T08:08:29.868Z,32.80
2018-01-19T08:10:57.452Z,39.13
2018-01-19T08:13:25.032Z,36.70
2018-01-19T08:15:52.577Z,30.10
2018-01-19T08:18:20.142Z,26.77
2018-01-19T08:20:47.693Z,24.37
2018-01-19T08:23:15.259Z,40.27
2018-01-19T08:25:43.574Z,29.23
2018-01-19T08:28:11.144Z,25.47
2018-01-19T08:30:39.452Z,20.70
2018-01-19T08:33:07.781Z,31.80
2018-01-19T08:35:35.320Z,23.60
2018-01-19T08:38:02.894Z,26.20
2018-01-19T08:40:30.452Z,21.40
2018-01-19T08:42:58.025Z,27.00
2018-01-19T08:45:25.595Z,21.93
2018-01-19T08:47:53.150Z,35.60
2018-01-19T08:50:21.488Z,25.37
2018-01-19T08:52:49.037Z,23.60
2018-01-19T08:55:17.360Z,16.20
2018-01-19T08:57:44.897Z,21.43
2018-01-19T09:00:12.456Z,18.80
2018-01-19T09:02:40.006Z,23.67
2018-01-19T09:05:07.564Z,20.27
2018-01-19T09:07:35.868Z,19.70
2018-01-19T09:10:04.197Z,19.33
2018-01-19T09:12:31.752Z,19.93
2018-01-19T09:15:00.082Z,17.77
2018-01-19T09:17:27.624Z,24.47
2018-01-19T09:19:55.165Z,17.83
2018-01-19T09:22:22.724Z,17.80
2018-01-19T09:24:50.273Z,18.67
2018-01-19T09:27:17.836Z,14.50
2018-01-19T09:29:45.383Z,20.17
2018-01-19T09:32:12.953Z,12.80
2018-01-19T09:34:40.500Z,17.60
2018-01-19T09:37:08.072Z,17.33
2018-01-19T09:39:35.609Z,18.57
2018-01-19T09:42:03.936Z,29.00
2018-01-19T09:44:31.505Z,14.73
2018-01-19T09:46:59.078Z,16.03
2018-01-19T09:49:26.629Z,14.30
2018-01-19T09:51:54.190Z,16.47
2018-01-19T09:54:21.734Z,24.30
2018-01-19T09:56:49.283Z,19.90
2018-01-19T09:59:16.825Z,19.37
2018-01-19T10:01:44.385Z,15.90
2018-01-19T10:04:12.693Z,20.00
2018-01-19T10:06:41.019Z,12.20
2018-01-19T10:09:08.560Z,17.07
2018-01-19T10:11:36.111Z,16.80
2018-01-19T10:14:03.668Z,19.80
2018-01-19T10:16:31.250Z,18.93
2018-01-19T10:18:58.824Z,20.03
2018-01-19T10:21:26.393Z,17.07
2018-01-19T10:23:54.716Z,23.60
2018-01-19T10:26:22.252Z,16.10
2018-01-19T10:28:49.811Z,25.30
2018-01-19T10:31:17.352Z,16.43
2018-01-19T10:33:44.917Z,20.13
2018-01-19T10:36:12.456Z,17.63
2018-01-19T10:38:40.016Z,14.33
2018-01-19T10:41:07.556Z,17.47
2018-01-19T10:43:35.121Z,18.93
2018-01-19T10:46:02.660Z,12.50
2018-01-19T10:48:30.220Z,13.27
2018-01-19T10:50:58.537Z,19.27
2018-01-19T10:53:26.864Z,17.97
2018-01-19T10:55:54.406Z,12.70
2018-01-19T10:58:22.724Z,20.73
2018-01-19T11:00:51.072Z,21.73
2018-01-19T11:03:18.588Z,15.20
2018-01-19T11:05:46.152Z,19.40
2018-01-19T11:08:13.702Z,25.53
2018-01-19T11:10:41.270Z,21.27
2018-01-19T11:13:08.816Z,25.40
2018-01-19T11:15:36.377Z,16.90
2018-01-19T11:18:03.921Z,17.87
2018-01-19T11:20:31.491Z,16.90
2018-01-19T11:22:59.800Z,21.33
2018-01-19T11:25:27.361Z,23.93
2018-01-19T11:27:54.896Z,22.53
2018-01-19T11:30:22.459Z,17.43
2018-01-19T11:32:50.004Z,19.40
2018-01-19T11:35:17.569Z,13.87
2018-01-19T11:37:45.121Z,20.20
2018-01-19T11:40:12.687Z,17.77
2018-01-19T11:42:40.232Z,14.40
2018-01-19T11:45:07.797Z,15.37
2018-01-19T11:47:35.334Z,22.93
2018-01-19T11:50:03.657Z,25.40
2018-01-19T11:52:31.212Z,15.93
2018-01-19T11:54:59.549Z,16.63
2018-01-19T11:57:27.136Z,21.20
2018-01-19T11:59:54.679Z,25.07
2018-01-19T12:02:23.009Z,20.13
2018-01-19T12:04:50.548Z,20.33
2018-01-19T12:07:18.117Z,16.70
2018-01-19T12:09:45.656Z,16.37
2018-01-19T12:12:13.220Z,19.40
2018-01-19T12:14:41.536Z,29.73
2018-01-19T12:17:09.096Z,11.43
2018-01-19T12:19:36.646Z,19.00
2018-01-19T12:22:04.209Z,19.90
2018-01-19T12:24:31.762Z,10.57
2018-01-19T12:27:00.097Z,21.50
2018-01-19T12:29:27.636Z,12.77
2018-01-19T12:31:55.963Z,18.27
2018-01-19T12:34:23.507Z,14.93
2018-01-19T12:36:51.073Z,23.63
2018-01-19T12:39:18.624Z,11.97
2018-01-19T12:41:46.998Z,16.90
2018-01-19T12:44:15.305Z,14.70
2018-01-19T12:46:43.632Z,12.73
2018-01-19T12:49:11.177Z,18.63
2018-01-19T12:51:38.745Z,9.43
2018-01-19T12:54:06.288Z,13.73
2018-01-19T12:56:33.864Z,17.60
2018-01-19T12:59:01.426Z,20.83
2018-01-19T13:01:29.742Z,20.77
2018-01-19T13:03:57.305Z,15.20
2018-01-19T13:06:25.614Z,13.50
2018-01-19T13:08:53.945Z,15.63
2018-01-19T13:11:21.480Z,17.00
2018-01-19T13:13:49.036Z,14.20
2018-01-19T13:16:16.591Z,17.30
2018-01-19T13:18:44.156Z,21.17
2018-01-19T13:21:11.701Z,16.33
2018-01-19T13:23:39.256Z,17.10
2018-01-19T13:26:06.812Z,20.10
2018-01-19T13:28:34.372Z,17.30
2018-01-19T13:31:01.912Z,23.50
2018-01-19T13:33:29.474Z,23.07
2018-01-19T13:35:57.019Z,16.27
2018-01-19T13:38:25.336Z,23.93
2018-01-19T13:40:53.661Z,25.33
2018-01-19T13:43:21.204Z,21.47
2018-01-19T13:45:48.770Z,20.20
2018-01-19T13:48:17.132Z,19.40
2018-01-19T13:50:44.700Z,17.40
2018-01-19T13:53:12.251Z,16.90
2018-01-19T13:55:39.816Z,24.43
2018-01-19T13:58:07.354Z,26.87
2018-01-19T14:00:34.912Z,19.57
2018-01-19T14:03:02.449Z,24.13
2018-01-19T14:05:30.012Z,19.07
2018-01-19T14:07:57.583Z,19.30
2018-01-19T14:10:25.904Z,14.10
2018-01-19T14:12:53.445Z,16.50
2018-01-19T14:15:20.989Z,24.33
2018-01-19T14:17:48.551Z,16.80
2018-01-19T14:20:16.099Z,19.10
2018-01-19T14:22:43.661Z,22.13
2018-01-19T14:25:11.197Z,21.03
2018-01-19T14:27:38.763Z,15.77
2018-01-19T14:30:07.088Z,15.07
2018-01-19T14:32:34.649Z,19.00
2018-01-19T14:35:02.956Z,21.73
2018-01-19T14:37:31.276Z,33.60
2018-01-19T14:39:58.814Z,23.47
2018-01-19T14:42:26.369Z,26.10
2018-01-19T14:44:53.914Z,27.40
2018-01-19T14:47:22.245Z,21.00
2018-01-19T14:49:49.794Z,18.70
2018-01-19T14:52:18.109Z,22.73
2018-01-19T14:54:45.676Z,38.23
2018-01-19T14:57:13.986Z,28.43
2018-01-19T14:59:42.325Z,29.20
2018-01-19T15:02:10.644Z,25.23
2018-01-19T15:04:38.205Z,27.40
2018-01-19T15:07:05.752Z,26.77
2018-01-19T15:09:34.072Z,25.30
2018-01-19T15:12:01.614Z,26.00
2018-01-19T15:14:29.167Z,29.80
2018-01-19T15:16:56.711Z,26.80
2018-01-19T15:19:25.037Z,26.23
2018-01-19T15:21:52.580Z,24.37
2018-01-19T15:24:20.154Z,24.43
2018-01-19T15:26:47.712Z,25.10
2018-01-19T15:29:15.274Z,24.37
2018-01-19T15:31:42.821Z,22.53
2018-01-19T15:34:11.153Z,28.63
2018-01-19T15:36:38.775Z,19.80
2018-01-19T15:39:06.320Z,19.43
2018-01-19T15:41:33.898Z,24.83
2018-01-19T15:44:01.442Z,29.93
2018-01-19T15:46:29.006Z,21.40
2018-01-19T15:48:56.563Z,27.70
2018-01-19T15:51:24.129Z,17.93
2018-01-19T15:53:51.689Z,24.87
2018-01-19T15:56:19.257Z,16.07
2018-01-19T15:58:46.800Z,6.93
2018-01-19T16:01:14.364Z,11.40
2018-01-19T16:03:42.669Z,3.97
2018-01-19T16:06:10.222Z,5.07
2018-01-19T16:08:37.761Z,10.30
2018-01-19T16:11:05.320Z,8.10
2018-01-19T16:13:32.872Z,4.17
2018-01-19T16:16:00.410Z,6.40
2018-01-19T16:18:28.130Z,2.93
2018-01-19T16:20:55.671Z,12.87
2018-01-19T16:23:23.225Z,2.90
2018-01-19T16:25:51.541Z,7.20
2018-01-19T16:28:19.096Z,5.33
2018-01-19T16:30:46.641Z,4.57
2018-01-19T16:33:14.192Z,8.10
2018-01-19T16:35:42.497Z,7.83
2018-01-19T16:38:10.056Z,8.37
2018-01-19T16:40:37.610Z,6.67
2018-01-19T16:43:05.172Z,8.00
2018-01-19T16:45:32.748Z,5.87
2018-01-19T16:48:00.304Z,7.20
2018-01-19T16:50:28.620Z,5.27
2018-01-19T16:52:56.188Z,2.73
2018-01-19T16:55:24.496Z,5.40
2018-01-19T16:57:52.862Z,2.20
2018-01-19T17:00:20.397Z,3.43
2018-01-19T17:02:47.982Z,6.70
2018-01-19T17:05:15.518Z,3.33
2018-01-19T17:07:43.070Z,5.70
2018-01-19T17:10:10.640Z,9.53
2018-01-19T17:12:38.184Z,5.57
2018-01-19T17:15:05.739Z,6.43
2018-01-19T17:17:33.280Z,5.33
2018-01-19T17:20:00.841Z,11.07
2018-01-19T17:22:29.149Z,4.40
2018-01-19T17:24:57.483Z,5.43
2018-01-19T17:27:25.020Z,4.23
2018-01-19T17:29:53.357Z,10.87
2018-01-19T17:32:20.901Z,12.30
2018-01-19T17:34:48.457Z,10.40
2018-01-19T17:37:15.998Z,11.67
2018-01-19T17:39:43.551Z,7.40
2018-01-19T17:42:11.863Z,17.00
2018-01-19T17:44:40.184Z,26.57
2018-01-19T17:47:07.749Z,25.80
2018-01-19T17:49:36.084Z,21.23
2018-01-19T17:52:03.645Z,38.53
2018-01-19T17:54:31.973Z,29.47
2018-01-19T17:56:59.529Z,24.87
2018-01-19T17:59:27.872Z,32.47
2018-01-19T18:01:56.185Z,37.23
2018-01-19T18:04:23.744Z,38.90
2018-01-19T18:06:51.300Z,46.27
2018-01-19T18:09:19.607Z,46.00
2018-01-19T18:11:47.169Z,56.60
2018-01-19T18:14:14.715Z,49.63
2018-01-19T18:16:42.284Z,50.13
2018-01-19T18:19:09.833Z,61.80
2018-01-19T18:21:38.171Z,48.10
2018-01-19T18:24:05.729Z,55.13
2018-01-19T18:26:34.065Z,47.73
2018-01-19T18:29:04.738Z,52.17
2018-01-19T18:31:35.068Z,63.63
2018-01-19T18:34:02.869Z,54.70
2018-01-19T18:36:30.443Z,50.97
2018-01-19T18:38:58.037Z,48.50
2018-01-19T18:41:25.604Z,50.30
2018-01-19T18:43:53.149Z,53.70
2018-01-19T18:46:20.717Z,49.40
2018-01-19T18:48:48.260Z,59.97
2018-01-19T18:51:15.821Z,55.83
2018-01-19T18:53:44.161Z,53.30
2018-01-19T18:56:11.699Z,63.00
2018-01-19T18:58:39.256Z,58.63
2018-01-19T19:01:11.412Z,58.67
2018-01-19T19:03:39.352Z,62.03
2018-01-19T19:06:07.176Z,53.37
2018-01-19T19:08:35.504Z,70.30
2018-01-19T19:11:09.224Z,63.73
2018-01-19T19:13:39.240Z,61.87
2018-01-19T19:16:07.544Z,77.60
2018-01-19T19:18:35.872Z,61.97
2018-01-19T19:21:03.424Z,80.10
2018-01-19T19:23:31.014Z,77.27
2018-01-19T19:26:00.148Z,88.50
2018-01-19T19:28:28.128Z,89.27
2018-01-19T19:30:56.451Z,71.90
2018-01-19T19:33:29.831Z,77.97
2018-01-19T19:35:59.407Z,88.33
2018-01-19T19:38:32.613Z,77.27
2018-01-19T19:41:00.345Z,78.40
2018-01-19T19:43:30.030Z,80.03
2018-01-19T19:46:01.236Z,78.63
2018-01-19T19:48:30.998Z,77.53
2018-01-19T19:50:59.785Z,78.43
2018-01-19T19:53:30.038Z,69.67
2018-01-19T19:56:00.939Z,86.57
2018-01-19T19:58:33.189Z,75.53
2018-01-19T20:01:07.293Z,84.50
2018-01-19T20:03:40.963Z,92.73
2018-01-19T20:06:09.807Z,92.70
2018-01-19T20:08:43.797Z,81.40
2018-01-19T20:11:17.910Z,83.37
2018-01-19T20:13:50.117Z,80.67
2018-01-19T20:16:21.880Z,79.17
2018-01-19T20:18:52.941Z,88.83
2018-01-19T20:21:21.108Z,96.40
2018-01-19T20:23:54.489Z,97.53
2018-01-19T20:26:22.600Z,99.60
2018-01-19T20:28:50.317Z,107.57
2018-01-19T20:31:18.156Z,84.33
2018-01-19T20:33:46.563Z,89.43
2018-01-19T20:36:14.306Z,88.33
2018-01-19T20:38:42.000Z,91.60
2018-01-19T20:41:10.620Z,96.93
2018-01-19T20:43:38.395Z,92.50
2018-01-19T20:46:06.892Z,81.13
2018-01-19T20:48:34.677Z,93.30
2018-01-19T20:51:02.426Z,90.80
2018-01-19T20:53:30.209Z,94.70
2018-01-19T20:55:57.998Z,86.07
2018-01-19T20:58:25.639Z,108.20
2018-01-19T21:00:53.272Z,87.93
2018-01-19T21:03:20.844Z,103.97
2018-01-19T21:05:49.151Z,92.53
2018-01-19T21:08:18.603Z,90.60
2018-01-19T21:10:46.153Z,84.47
2018-01-19T21:13:13.786Z,91.27
2018-01-19T21:15:41.346Z,107.17
2018-01-19T21:18:08.916Z,90.50
2018-01-19T21:20:37.239Z,104.00
2018-01-19T21:23:04.796Z,85.10
2018-01-19T21:25:32.352Z,91.70
2018-01-19T21:27:59.938Z,81.63
2018-01-19T21:30:27.481Z,84.87
2018-01-19T21:32:55.040Z,101.37
2018-01-19T21:35:23.373Z,82.77
2018-01-19T21:37:50.990Z,92.80
2018-01-19T21:40:18.551Z,96.73
2018-01-19T21:42:46.093Z,102.23
2018-01-19T21:45:14.428Z,96.57
2018-01-19T21:47:42.009Z,89.63
2018-01-19T21:50:09.702Z,96.07
2018-01-19T21:52:37.267Z,93.93
2018-01-19T21:55:05.596Z,82.80
2018-01-19T21:57:33.144Z,93.53
2018-01-19T22:00:01.478Z,95.00
2018-01-19T22:02:29.033Z,89.37
2018-01-19T22:04:56.607Z,99.37
2018-01-19T22:07:24.923Z,107.70
2018-01-19T22:09:52.491Z,109.03
2018-01-19T22:12:20.812Z,103.30
2018-01-19T22:14:48.383Z,95.87
2018-01-19T22:17:16.694Z,96.07
2018-01-19T22:19:45.021Z,92.70
2018-01-19T22:22:12.561Z,83.80
2018-01-19T22:24:40.100Z,91.40
2018-01-19T22:27:07.674Z,83.80
2018-01-19T22:29:35.217Z,85.77
2018-01-19T22:32:03.565Z,88.70
2018-01-19T22:34:31.112Z,82.97
2018-01-19T22:36:58.709Z,86.37
2018-01-19T22:39:26.256Z,84.23
2018-01-19T22:41:53.817Z,83.80
2018-01-19T22:44:21.381Z,75.60
2018-01-19T22:46:48.944Z,77.90
2018-01-19T22:49:16.487Z,71.57
2018-01-19T22:51:44.099Z,72.77
2018-01-19T22:54:11.619Z,75.10
2018-01-19T22:56:39.180Z,66.03
2018-01-19T22:59:06.737Z,73.93
2018-01-19T23:01:35.084Z,70.47
2018-01-19T23:04:02.692Z,67.30
2018-01-19T23:06:30.252Z,60.67
2018-01-19T23:08:57.813Z,78.10
2018-01-19T23:11:25.361Z,67.20
2018-01-19T23:13:52.920Z,73.37
2018-01-19T23:16:20.468Z,75.50
2018-01-19T23:18:48.028Z,71.80
2018-01-19T23:21:16.345Z,76.33
2018-01-19T23:23:44.669Z,65.40
2018-01-19T23:26:12.213Z,63.10
2018-01-19T23:28:39.782Z,69.07
2018-01-19T23:31:07.337Z,68.27
2018-01-19T23:33:34.904Z,66.97
2018-01-19T23:36:02.446Z,67.27
2018-01-19T23:38:30.046Z,58.53
2018-01-19T23:40:58.411Z,56.13
2018-01-19T23:43:25.956Z,58.60
2018-01-19T23:45:53.508Z,60.40
2018-01-19T23:48:21.844Z,70.40
2018-01-19T23:50:49.405Z,57.10
2018-01-19T23:53:17.763Z,50.93
2018-01-19T23:55:45.320Z,61.93
2018-01-19T23:58:12.881Z,63.60
